createdAt,value
2023-02-22T00:00:02.590Z,89.70
2023-02-22T00:01:04.497Z,89.39
2023-02-22T00:01:35.854Z,89.29
2023-02-22T00:02:06.482Z,89.29
2023-02-22T00:02:37.418Z,89.50
2023-02-22T00:03:08.546Z,89.81
2023-02-22T00:03:38.992Z,90.02
2023-02-22T00:04:09.922Z,90.23
2023-02-22T00:04:40.865Z,90.33
2023-02-22T00:05:11.754Z,90.44
2023-02-22T00:06:13.614Z,90.33
2023-02-22T00:06:44.535Z,90.64
2023-02-22T00:07:15.444Z,90.54
2023-02-22T00:07:46.364Z,90.54
2023-02-22T00:08:17.298Z,91.10
2023-02-22T00:08:48.186Z,91.41
2023-02-22T00:09:19.092Z,91.10
2023-02-22T00:09:49.992Z,90.79
2023-02-22T00:10:20.896Z,90.79
2023-02-22T00:10:51.821Z,90.79
2023-02-22T00:11:22.791Z,91.00
2023-02-22T00:11:53.676Z,91.10
2023-02-22T00:12:24.597Z,91.31
2023-02-22T00:12:55.541Z,91.41
2023-02-22T00:13:26.464Z,91.31
2023-02-22T00:13:57.562Z,91.31
2023-02-22T00:14:27.946Z,91.62
2023-02-22T00:14:58.889Z,91.52
2023-02-22T00:15:29.823Z,91.62
2023-02-22T00:16:00.821Z,91.72
2023-02-22T00:16:31.854Z,91.72
2023-02-22T00:17:02.286Z,91.83
2023-02-22T00:17:33.218Z,91.72
2023-02-22T00:18:04.156Z,91.41
2023-02-22T00:18:35.088Z,91.41
2023-02-22T00:19:05.992Z,91.52
2023-02-22T00:19:36.908Z,91.00
2023-02-22T00:20:07.870Z,90.69
2023-02-22T00:20:38.791Z,90.58
2023-02-22T00:21:09.703Z,90.47
2023-02-22T00:21:40.594Z,90.69
2023-02-22T00:22:11.553Z,90.79
2023-02-22T00:22:42.503Z,90.58
2023-02-22T00:23:44.324Z,90.37
2023-02-22T00:24:15.234Z,90.26
2023-02-22T00:24:46.148Z,90.06
2023-02-22T00:25:17.096Z,90.47
2023-02-22T00:25:47.995Z,90.58
2023-02-22T00:26:18.924Z,90.89
2023-02-22T00:26:49.880Z,90.79
2023-02-22T00:27:20.829Z,90.37
2023-02-22T00:27:51.723Z,90.26
2023-02-22T00:28:22.646Z,89.95
2023-02-22T00:28:53.565Z,90.16
2023-02-22T00:29:24.486Z,90.47
2023-02-22T00:29:55.391Z,90.58
2023-02-22T00:30:26.343Z,90.37
2023-02-22T00:30:57.271Z,90.06
2023-02-22T00:31:28.213Z,89.95
2023-02-22T00:31:59.296Z,90.20
2023-02-22T00:32:29.802Z,90.52
2023-02-22T00:33:00.706Z,90.83
2023-02-22T00:33:31.634Z,90.83
2023-02-22T00:34:02.611Z,91.14
2023-02-22T00:34:33.053Z,91.46
2023-02-22T00:35:03.981Z,91.66
2023-02-22T00:35:34.867Z,91.91
2023-02-22T00:36:05.809Z,92.02
2023-02-22T00:36:36.708Z,92.02
2023-02-22T00:37:07.627Z,92.02
2023-02-22T00:37:38.558Z,92.02
2023-02-22T00:38:09.480Z,91.91
2023-02-22T00:38:40.403Z,91.77
2023-02-22T00:39:11.325Z,91.56
2023-02-22T00:39:42.232Z,91.50
2023-02-22T00:40:13.183Z,91.46
2023-02-22T00:40:44.129Z,91.35
2023-02-22T00:41:15.461Z,91.25
2023-02-22T00:41:45.654Z,91.04
2023-02-22T00:42:16.127Z,91.04
2023-02-22T00:42:47.022Z,91.14
2023-02-22T00:43:17.958Z,91.04
2023-02-22T00:43:48.864Z,91.04
2023-02-22T00:44:19.794Z,91.04
2023-02-22T00:44:50.704Z,91.04
2023-02-22T00:45:21.626Z,91.04
2023-02-22T00:46:23.477Z,90.93
2023-02-22T00:46:54.395Z,90.83
2023-02-22T00:47:25.333Z,90.72
2023-02-22T00:47:56.257Z,91.04
2023-02-22T00:48:27.181Z,91.46
2023-02-22T00:48:58.090Z,91.56
2023-02-22T00:49:29.037Z,91.56
2023-02-22T00:49:59.972Z,91.77
2023-02-22T00:50:30.898Z,91.97
2023-02-22T00:51:01.804Z,91.97
2023-02-22T00:51:32.715Z,91.56
2023-02-22T00:52:03.637Z,91.18
2023-02-22T00:52:34.570Z,90.97
2023-02-22T00:53:05.497Z,90.77
2023-02-22T00:53:36.431Z,90.97
2023-02-22T00:54:07.345Z,91.18
2023-02-22T00:54:38.266Z,91.39
2023-02-22T00:55:09.181Z,91.50
2023-02-22T00:55:40.103Z,91.50
2023-02-22T00:56:11.157Z,91.81
2023-02-22T00:56:41.568Z,91.81
2023-02-22T00:57:12.490Z,91.71
2023-02-22T00:57:43.449Z,91.60
2023-02-22T00:58:14.338Z,91.39
2023-02-22T00:58:45.253Z,90.97
2023-02-22T00:59:16.176Z,91.08
2023-02-22T00:59:47.110Z,91.18
2023-02-22T01:00:18.046Z,91.39
2023-02-22T01:00:49.061Z,91.53
2023-02-22T01:01:19.754Z,91.60
2023-02-22T01:01:50.171Z,91.71
2023-02-22T01:02:21.107Z,91.81
2023-02-22T01:02:51.641Z,91.91
2023-02-22T01:03:22.625Z,91.81
2023-02-22T01:04:24.094Z,91.71
2023-02-22T01:04:54.616Z,92.12
2023-02-22T01:05:25.210Z,92.12
2023-02-22T01:05:56.197Z,92.33
2023-02-22T01:06:27.120Z,92.43
2023-02-22T01:06:58.060Z,92.43
2023-02-22T01:07:28.978Z,92.54
2023-02-22T01:07:59.901Z,92.54
2023-02-22T01:08:30.831Z,92.37
2023-02-22T01:09:01.761Z,92.16
2023-02-22T01:09:32.677Z,91.96
2023-02-22T01:10:03.600Z,91.85
2023-02-22T01:10:34.522Z,91.75
2023-02-22T01:11:05.417Z,91.64
2023-02-22T01:11:36.363Z,91.43
2023-02-22T01:12:07.280Z,91.53
2023-02-22T01:12:38.202Z,91.64
2023-02-22T01:13:09.638Z,91.85
2023-02-22T01:13:40.078Z,91.85
2023-02-22T01:14:11.012Z,91.75
2023-02-22T01:14:41.927Z,91.75
2023-02-22T01:15:12.856Z,91.85
2023-02-22T01:15:43.829Z,91.85
2023-02-22T01:16:14.791Z,91.85
2023-02-22T01:16:45.724Z,91.75
2023-02-22T01:17:16.621Z,91.39
2023-02-22T01:17:47.512Z,91.28
2023-02-22T01:18:18.429Z,91.50
2023-02-22T01:18:49.358Z,91.50
2023-02-22T01:19:20.263Z,91.60
2023-02-22T01:19:53.855Z,91.81
2023-02-22T01:20:21.843Z,91.91
2023-02-22T01:20:52.771Z,91.91
2023-02-22T01:21:54.651Z,91.91
2023-02-22T01:22:25.581Z,91.81
2023-02-22T01:22:56.502Z,91.71
2023-02-22T01:23:27.416Z,91.96
2023-02-22T01:23:58.308Z,91.96
2023-02-22T01:24:29.214Z,91.85
2023-02-22T01:25:00.173Z,92.06
2023-02-22T01:25:31.106Z,92.06
2023-02-22T01:26:01.999Z,92.16
2023-02-22T01:26:32.948Z,92.37
2023-02-22T01:27:03.881Z,92.16
2023-02-22T01:27:34.818Z,91.85
2023-02-22T01:28:05.749Z,91.75
2023-02-22T01:28:36.674Z,91.75
2023-02-22T01:29:07.591Z,91.85
2023-02-22T01:29:38.529Z,91.64
2023-02-22T01:30:09.483Z,91.75
2023-02-22T01:30:40.773Z,91.75
2023-02-22T01:31:11.331Z,91.96
2023-02-22T01:31:42.297Z,91.96
2023-02-22T01:32:13.279Z,91.85
2023-02-22T01:32:44.204Z,91.75
2023-02-22T01:33:15.143Z,91.64
2023-02-22T01:33:46.077Z,91.75
2023-02-22T01:34:16.990Z,91.85
2023-02-22T01:34:47.903Z,91.96
2023-02-22T01:35:18.837Z,92.06
2023-02-22T01:35:49.791Z,92.27
2023-02-22T01:36:20.710Z,92.16
2023-02-22T01:36:51.637Z,92.16
2023-02-22T01:37:22.572Z,92.52
2023-02-22T01:37:53.508Z,92.41
2023-02-22T01:38:24.415Z,92.10
2023-02-22T01:38:55.337Z,91.89
2023-02-22T01:39:26.254Z,92.00
2023-02-22T01:39:57.167Z,92.00
2023-02-22T01:40:28.071Z,92.10
2023-02-22T01:40:59.003Z,92.10
2023-02-22T01:41:30.596Z,92.10
2023-02-22T01:42:00.481Z,92.31
2023-02-22T01:42:31.384Z,92.52
2023-02-22T01:43:02.292Z,92.72
2023-02-22T01:43:33.230Z,92.72
2023-02-22T01:44:04.172Z,92.93
2023-02-22T01:44:35.104Z,93.24
2023-02-22T01:45:06.011Z,93.14
2023-02-22T01:45:36.954Z,93.14
2023-02-22T01:46:07.942Z,93.14
2023-02-22T01:46:38.903Z,93.24
2023-02-22T01:47:09.807Z,93.14
2023-02-22T01:47:40.735Z,93.14
2023-02-22T01:48:11.684Z,93.04
2023-02-22T01:49:13.515Z,93.35
2023-02-22T01:49:44.434Z,93.46
2023-02-22T01:50:15.353Z,93.56
2023-02-22T01:50:46.275Z,93.66
2023-02-22T01:51:17.526Z,93.66
2023-02-22T01:51:48.100Z,93.66
2023-02-22T01:52:19.011Z,93.46
2023-02-22T01:52:49.922Z,93.35
2023-02-22T01:53:20.824Z,93.24
2023-02-22T01:53:51.758Z,93.14
2023-02-22T01:54:22.666Z,93.14
2023-02-22T01:54:53.596Z,93.14
2023-02-22T01:55:24.502Z,93.14
2023-02-22T01:55:55.444Z,93.14
2023-02-22T01:56:26.373Z,92.83
2023-02-22T01:56:57.297Z,92.83
2023-02-22T01:57:28.220Z,92.62
2023-02-22T01:57:59.141Z,92.72
2023-02-22T01:58:30.040Z,92.83
2023-02-22T01:59:00.961Z,92.93
2023-02-22T01:59:31.903Z,92.93
2023-02-22T02:00:02.835Z,92.83
2023-02-22T02:00:33.755Z,92.93
2023-02-22T02:01:04.664Z,92.72
2023-02-22T02:01:35.580Z,92.72
2023-02-22T02:02:06.518Z,92.72
2023-02-22T02:02:37.038Z,92.83
2023-02-22T02:03:07.982Z,92.72
2023-02-22T02:03:38.946Z,92.93
2023-02-22T02:04:09.916Z,92.93
2023-02-22T02:04:40.417Z,92.93
2023-02-22T02:05:11.399Z,92.72
2023-02-22T02:05:42.307Z,92.83
2023-02-22T02:06:13.208Z,92.83
2023-02-22T02:06:44.110Z,92.83
2023-02-22T02:07:15.247Z,92.83
2023-02-22T02:07:45.669Z,92.83
2023-02-22T02:08:16.594Z,92.79
2023-02-22T02:08:47.527Z,92.68
2023-02-22T02:09:18.453Z,92.58
2023-02-22T02:09:49.383Z,92.58
2023-02-22T02:10:20.316Z,92.58
2023-02-22T02:10:51.193Z,92.72
2023-02-22T02:11:22.161Z,92.72
2023-02-22T02:11:53.043Z,92.72
2023-02-22T02:12:23.956Z,92.83
2023-02-22T02:12:54.864Z,92.72
2023-02-22T02:13:25.796Z,92.62
2023-02-22T02:13:56.706Z,92.83
2023-02-22T02:14:27.631Z,92.83
2023-02-22T02:14:58.558Z,92.72
2023-02-22T02:15:29.451Z,92.62
2023-02-22T02:16:00.350Z,92.52
2023-02-22T02:16:31.277Z,92.62
2023-02-22T02:17:02.297Z,92.87
2023-02-22T02:17:32.754Z,92.93
2023-02-22T02:18:03.686Z,93.14
2023-02-22T02:18:34.597Z,93.29
2023-02-22T02:19:05.556Z,93.40
2023-02-22T02:19:36.473Z,93.46
2023-02-22T02:20:07.383Z,93.56
2023-02-22T02:20:38.280Z,93.56
2023-02-22T02:21:09.212Z,93.46
2023-02-22T02:21:40.122Z,93.40
2023-02-22T02:22:11.047Z,93.40
2023-02-22T02:22:41.957Z,93.71
2023-02-22T02:23:12.930Z,93.81
2023-02-22T02:23:43.821Z,93.71
2023-02-22T02:24:14.737Z,93.18
2023-02-22T02:24:45.679Z,93.29
2023-02-22T02:25:16.622Z,93.71
2023-02-22T02:25:47.533Z,94.23
2023-02-22T02:26:18.447Z,94.23
2023-02-22T02:26:49.413Z,93.91
2023-02-22T02:27:20.293Z,93.60
2023-02-22T02:27:51.198Z,93.50
2023-02-22T02:28:22.137Z,93.71
2023-02-22T02:28:53.067Z,93.81
2023-02-22T02:29:23.955Z,94.02
2023-02-22T02:29:54.875Z,93.91
2023-02-22T02:30:25.888Z,93.81
2023-02-22T02:30:56.790Z,93.81
2023-02-22T02:31:27.845Z,93.81
2023-02-22T02:31:58.382Z,93.81
2023-02-22T02:32:28.838Z,93.91
2023-02-22T02:32:59.740Z,93.81
2023-02-22T02:33:30.657Z,93.50
2023-02-22T02:34:01.593Z,93.29
2023-02-22T02:34:32.511Z,92.97
2023-02-22T02:35:03.434Z,92.77
2023-02-22T02:35:34.358Z,92.77
2023-02-22T02:36:05.258Z,92.97
2023-02-22T02:36:36.209Z,93.18
2023-02-22T02:37:07.157Z,93.18
2023-02-22T02:37:38.060Z,93.18
2023-02-22T02:38:09.004Z,92.93
2023-02-22T02:38:40.115Z,92.93
2023-02-22T02:39:10.528Z,93.04
2023-02-22T02:39:41.473Z,93.14
2023-02-22T02:40:12.451Z,93.24
2023-02-22T02:40:42.901Z,93.04
2023-02-22T02:41:13.804Z,92.87
2023-02-22T02:41:44.707Z,92.87
2023-02-22T02:42:15.649Z,92.97
2023-02-22T02:42:46.580Z,92.87
2023-02-22T02:43:17.528Z,92.97
2023-02-22T02:43:48.423Z,93.18
2023-02-22T02:44:19.333Z,93.40
2023-02-22T02:44:50.293Z,93.40
2023-02-22T02:45:21.220Z,93.50
2023-02-22T02:45:52.187Z,93.75
2023-02-22T02:46:54.029Z,94.02
2023-02-22T02:47:25.010Z,94.06
2023-02-22T02:47:55.938Z,94.17
2023-02-22T02:48:26.855Z,94.27
2023-02-22T02:48:57.761Z,94.23
2023-02-22T02:49:28.673Z,94.12
2023-02-22T02:49:59.574Z,93.91
2023-02-22T02:50:30.497Z,93.85
2023-02-22T02:51:01.449Z,93.75
2023-02-22T02:51:32.381Z,93.81
2023-02-22T02:52:03.310Z,93.91
2023-02-22T02:52:34.234Z,93.91
2023-02-22T02:53:05.153Z,93.81
2023-02-22T02:53:36.078Z,93.81
2023-02-22T02:54:06.982Z,93.71
2023-02-22T02:54:37.914Z,93.71
2023-02-22T02:55:08.831Z,93.71
2023-02-22T02:55:39.782Z,93.60
2023-02-22T02:56:10.765Z,93.60
2023-02-22T02:56:41.677Z,93.50
2023-02-22T02:57:12.616Z,93.50
2023-02-22T02:57:43.542Z,93.50
2023-02-22T02:58:14.456Z,93.29
2023-02-22T02:58:45.405Z,93.08
2023-02-22T02:59:16.302Z,92.87
2023-02-22T02:59:47.225Z,92.87
2023-02-22T03:00:18.178Z,92.66
2023-02-22T03:00:49.122Z,92.56
2023-02-22T03:01:20.087Z,92.66
2023-02-22T03:01:51.079Z,92.66
2023-02-22T03:02:21.971Z,92.77
2023-02-22T03:02:52.895Z,92.77
2023-02-22T03:03:23.824Z,92.77
2023-02-22T03:03:54.740Z,92.62
2023-02-22T03:04:25.685Z,92.56
2023-02-22T03:04:56.630Z,92.41
2023-02-22T03:05:27.531Z,92.31
2023-02-22T03:05:58.439Z,92.03
2023-02-22T03:06:29.380Z,92.25
2023-02-22T03:07:00.388Z,92.35
2023-02-22T03:07:31.325Z,92.03
2023-02-22T03:08:02.260Z,91.93
2023-02-22T03:08:33.158Z,92.14
2023-02-22T03:09:04.134Z,92.50
2023-02-22T03:09:35.020Z,92.71
2023-02-22T03:10:05.945Z,92.91
2023-02-22T03:10:36.885Z,93.02
2023-02-22T03:11:07.816Z,93.12
2023-02-22T03:11:38.767Z,93.33
2023-02-22T03:12:09.686Z,93.23
2023-02-22T03:12:40.632Z,93.12
2023-02-22T03:13:11.570Z,92.91
2023-02-22T03:13:42.502Z,92.91
2023-02-22T03:14:13.447Z,92.91
2023-02-22T03:14:44.376Z,92.91
2023-02-22T03:15:15.316Z,92.71
2023-02-22T03:15:45.821Z,92.40
2023-02-22T03:16:16.777Z,92.40
2023-02-22T03:16:47.726Z,92.50
2023-02-22T03:17:18.626Z,92.50
2023-02-22T03:17:49.532Z,92.60
2023-02-22T03:18:20.436Z,92.60
2023-02-22T03:18:51.355Z,92.66
2023-02-22T03:19:22.269Z,92.40
2023-02-22T03:19:53.212Z,92.18
2023-02-22T03:20:24.127Z,91.97
2023-02-22T03:20:55.065Z,92.08
2023-02-22T03:21:25.966Z,92.29
2023-02-22T03:21:56.917Z,92.40
2023-02-22T03:22:27.835Z,92.29
2023-02-22T03:22:58.783Z,92.18
2023-02-22T03:23:29.683Z,92.08
2023-02-22T03:24:00.589Z,92.08
2023-02-22T03:24:31.512Z,92.08
2023-02-22T03:25:02.490Z,92.18
2023-02-22T03:25:33.378Z,92.40
2023-02-22T03:26:04.310Z,92.40
2023-02-22T03:26:35.274Z,92.50
2023-02-22T03:27:06.175Z,92.81
2023-02-22T03:27:37.101Z,93.02
2023-02-22T03:28:08.026Z,93.02
2023-02-22T03:28:38.968Z,92.81
2023-02-22T03:29:09.881Z,92.60
2023-02-22T03:29:40.818Z,92.29
2023-02-22T03:30:11.749Z,92.29
2023-02-22T03:30:42.648Z,92.29
2023-02-22T03:31:13.609Z,92.50
2023-02-22T03:31:44.522Z,92.60
2023-02-22T03:32:15.492Z,92.81
2023-02-22T03:32:46.398Z,92.71
2023-02-22T03:33:17.286Z,92.71
2023-02-22T03:33:48.204Z,92.60
2023-02-22T03:34:19.114Z,92.60
2023-02-22T03:34:50.039Z,92.50
2023-02-22T03:35:20.993Z,92.40
2023-02-22T03:35:51.917Z,92.40
2023-02-22T03:36:22.854Z,92.60
2023-02-22T03:36:53.788Z,92.81
2023-02-22T03:37:24.722Z,92.71
2023-02-22T03:37:55.643Z,92.71
2023-02-22T03:38:26.549Z,92.60
2023-02-22T03:38:57.576Z,92.60
2023-02-22T03:39:28.463Z,92.60
2023-02-22T03:39:59.418Z,92.60
2023-02-22T03:40:30.348Z,92.60
2023-02-22T03:41:01.276Z,92.60
2023-02-22T03:41:32.202Z,92.40
2023-02-22T03:42:03.142Z,92.40
2023-02-22T03:42:34.079Z,92.40
2023-02-22T03:43:04.998Z,92.50
2023-02-22T03:43:35.908Z,92.60
2023-02-22T03:44:06.834Z,92.81
2023-02-22T03:44:37.738Z,93.02
2023-02-22T03:45:08.670Z,93.12
2023-02-22T03:45:39.600Z,93.23
2023-02-22T03:46:10.609Z,93.23
2023-02-22T03:46:41.554Z,93.12
2023-02-22T03:47:12.464Z,93.23
2023-02-22T03:47:43.426Z,93.23
2023-02-22T03:48:14.350Z,92.91
2023-02-22T03:48:45.266Z,92.60
2023-02-22T03:49:16.192Z,92.60
2023-02-22T03:49:47.102Z,92.60
2023-02-22T03:50:18.009Z,92.60
2023-02-22T03:50:48.929Z,92.81
2023-02-22T03:51:20.132Z,93.02
2023-02-22T03:51:50.628Z,93.02
2023-02-22T03:52:21.537Z,92.81
2023-02-22T03:52:52.447Z,92.50
2023-02-22T03:53:23.389Z,92.40
2023-02-22T03:53:54.306Z,92.50
2023-02-22T03:54:25.235Z,92.60
2023-02-22T03:54:56.146Z,92.50
2023-02-22T03:55:27.069Z,92.60
2023-02-22T03:55:58.011Z,92.71
2023-02-22T03:56:28.943Z,92.81
2023-02-22T03:56:59.915Z,92.96
2023-02-22T03:57:30.845Z,92.91
2023-02-22T03:58:01.789Z,92.85
2023-02-22T03:58:32.714Z,92.85
2023-02-22T03:59:03.646Z,92.96
2023-02-22T03:59:34.546Z,93.06
2023-02-22T04:00:05.450Z,93.27
2023-02-22T04:00:36.344Z,93.37
2023-02-22T04:01:07.326Z,93.37
2023-02-22T04:01:38.249Z,93.37
2023-02-22T04:02:09.207Z,93.48
2023-02-22T04:02:40.179Z,93.59
2023-02-22T04:03:10.668Z,93.79
2023-02-22T04:03:41.575Z,93.90
2023-02-22T04:04:12.515Z,94.00
2023-02-22T04:04:43.542Z,94.00
2023-02-22T04:05:14.449Z,94.10
2023-02-22T04:05:45.375Z,94.06
2023-02-22T04:06:16.299Z,94.06
2023-02-22T04:06:47.208Z,94.27
2023-02-22T04:07:18.142Z,94.17
2023-02-22T04:07:49.077Z,94.17
2023-02-22T04:08:19.986Z,94.27
2023-02-22T04:08:50.916Z,94.42
2023-02-22T04:09:21.845Z,94.10
2023-02-22T04:09:52.785Z,94.00
2023-02-22T04:10:54.610Z,94.21
2023-02-22T04:11:25.538Z,94.31
2023-02-22T04:11:56.457Z,94.42
2023-02-22T04:12:27.396Z,94.42
2023-02-22T04:12:58.322Z,94.42
2023-02-22T04:13:29.251Z,94.31
2023-02-22T04:14:00.157Z,94.31
2023-02-22T04:14:31.112Z,94.31
2023-02-22T04:15:02.032Z,94.31
2023-02-22T04:15:32.975Z,94.10
2023-02-22T04:16:03.925Z,93.79
2023-02-22T04:16:34.869Z,93.79
2023-02-22T04:17:05.817Z,94.10
2023-02-22T04:17:36.739Z,94.21
2023-02-22T04:18:07.673Z,94.42
2023-02-22T04:18:38.624Z,94.42
2023-02-22T04:19:09.520Z,94.52
2023-02-22T04:19:40.436Z,94.52
2023-02-22T04:20:11.360Z,94.63
2023-02-22T04:20:42.270Z,94.84
2023-02-22T04:21:13.181Z,95.04
2023-02-22T04:21:44.104Z,95.15
2023-02-22T04:22:15.020Z,95.25
2023-02-22T04:22:45.956Z,95.25
2023-02-22T04:23:16.956Z,95.36
2023-02-22T04:23:47.911Z,95.25
2023-02-22T04:24:18.816Z,95.25
2023-02-22T04:24:49.702Z,95.04
2023-02-22T04:25:20.637Z,94.52
2023-02-22T04:25:51.572Z,94.42
2023-02-22T04:26:22.478Z,94.52
2023-02-22T04:26:53.382Z,94.52
2023-02-22T04:27:24.321Z,94.31
2023-02-22T04:27:55.251Z,94.21
2023-02-22T04:28:26.218Z,94.21
2023-02-22T04:28:57.146Z,94.31
2023-02-22T04:29:28.069Z,94.52
2023-02-22T04:29:58.989Z,94.94
2023-02-22T04:30:29.954Z,95.25
2023-02-22T04:31:00.468Z,95.46
2023-02-22T04:31:31.405Z,95.46
2023-02-22T04:32:02.335Z,95.40
2023-02-22T04:32:33.282Z,94.98
2023-02-22T04:33:04.177Z,94.78
2023-02-22T04:33:35.103Z,94.78
2023-02-22T04:34:06.050Z,94.98
2023-02-22T04:34:36.947Z,94.98
2023-02-22T04:35:07.898Z,95.09
2023-02-22T04:35:38.812Z,95.19
2023-02-22T04:36:09.746Z,95.40
2023-02-22T04:36:40.637Z,95.50
2023-02-22T04:37:11.562Z,95.50
2023-02-22T04:38:13.438Z,95.19
2023-02-22T04:38:44.360Z,95.09
2023-02-22T04:39:15.297Z,94.78
2023-02-22T04:39:46.239Z,94.67
2023-02-22T04:40:17.146Z,94.78
2023-02-22T04:40:48.073Z,94.73
2023-02-22T04:41:19.283Z,94.88
2023-02-22T04:41:49.857Z,94.94
2023-02-22T04:42:20.785Z,94.73
2023-02-22T04:42:51.693Z,94.73
2023-02-22T04:43:22.628Z,94.73
2023-02-22T04:43:53.526Z,94.73
2023-02-22T04:44:24.433Z,94.88
2023-02-22T04:44:55.330Z,95.04
2023-02-22T04:45:26.274Z,94.88
2023-02-22T04:45:57.212Z,94.67
2023-02-22T04:46:28.160Z,94.46
2023-02-22T04:46:59.775Z,94.35
2023-02-22T04:47:29.666Z,94.46
2023-02-22T04:48:00.627Z,94.67
2023-02-22T04:48:31.562Z,94.78
2023-02-22T04:49:02.469Z,94.98
2023-02-22T04:49:33.419Z,95.13
2023-02-22T04:50:04.362Z,95.23
2023-02-22T04:50:35.267Z,95.34
2023-02-22T04:51:06.236Z,95.44
2023-02-22T04:51:37.152Z,95.65
2023-02-22T04:52:08.068Z,95.76
2023-02-22T04:52:38.993Z,95.86
2023-02-22T04:53:09.917Z,95.86
2023-02-22T04:53:40.820Z,95.76
2023-02-22T04:54:11.721Z,95.55
2023-02-22T04:54:42.608Z,95.55
2023-02-22T04:55:44.468Z,95.65
2023-02-22T04:56:15.412Z,95.76
2023-02-22T04:56:46.347Z,95.86
2023-02-22T04:57:17.268Z,95.86
2023-02-22T04:57:48.169Z,95.97
2023-02-22T04:58:19.120Z,95.97
2023-02-22T04:58:50.018Z,95.97
2023-02-22T04:59:20.923Z,95.97
2023-02-22T04:59:51.843Z,96.01
2023-02-22T05:00:22.808Z,96.01
2023-02-22T05:00:53.715Z,96.22
2023-02-22T05:01:24.654Z,96.43
2023-02-22T05:01:55.576Z,96.59
2023-02-22T05:02:26.590Z,96.80
2023-02-22T05:02:57.075Z,96.70
2023-02-22T05:03:27.966Z,96.70
2023-02-22T05:03:58.868Z,96.80
2023-02-22T05:04:29.833Z,96.70
2023-02-22T05:05:00.879Z,96.80
2023-02-22T05:05:31.306Z,96.95
2023-02-22T05:06:02.214Z,97.05
2023-02-22T05:06:33.167Z,97.05
2023-02-22T05:07:04.067Z,97.16
2023-02-22T05:07:35.017Z,97.37
2023-02-22T05:08:05.953Z,97.47
2023-02-22T05:08:36.838Z,97.37
2023-02-22T05:09:07.725Z,97.58
2023-02-22T05:09:38.649Z,97.78
2023-02-22T05:10:09.557Z,97.78
2023-02-22T05:10:40.462Z,97.68
2023-02-22T05:11:11.369Z,97.68
2023-02-22T05:11:42.292Z,97.68
2023-02-22T05:12:13.185Z,97.78
2023-02-22T05:12:44.106Z,97.89
2023-02-22T05:13:15.027Z,97.89
2023-02-22T05:13:46.008Z,97.99
2023-02-22T05:14:16.933Z,98.10
2023-02-22T05:14:47.846Z,98.10
2023-02-22T05:15:18.790Z,97.99
2023-02-22T05:15:49.694Z,97.89
2023-02-22T05:16:20.670Z,97.68
2023-02-22T05:16:51.581Z,97.43
2023-02-22T05:17:22.495Z,97.47
2023-02-22T05:17:53.405Z,97.58
2023-02-22T05:18:24.315Z,97.47
2023-02-22T05:18:55.255Z,97.37
2023-02-22T05:19:26.167Z,97.37
2023-02-22T05:19:57.100Z,97.27
2023-02-22T05:20:28.096Z,97.27
2023-02-22T05:20:58.984Z,97.16
2023-02-22T05:21:29.908Z,97.16
2023-02-22T05:22:00.844Z,97.37
2023-02-22T05:22:31.786Z,97.47
2023-02-22T05:23:02.717Z,97.68
2023-02-22T05:23:33.614Z,97.89
2023-02-22T05:24:04.569Z,98.10
2023-02-22T05:24:35.473Z,98.10
2023-02-22T05:25:06.403Z,98.10
2023-02-22T05:25:37.328Z,97.89
2023-02-22T05:26:10.016Z,97.78
2023-02-22T05:26:38.860Z,97.68
2023-02-22T05:27:09.742Z,97.58
2023-02-22T05:27:40.656Z,97.47
2023-02-22T05:28:11.591Z,97.32
2023-02-22T05:28:42.497Z,97.32
2023-02-22T05:29:13.399Z,97.22
2023-02-22T05:29:44.329Z,97.22
2023-02-22T05:30:15.317Z,97.11
2023-02-22T05:30:46.324Z,97.01
2023-02-22T05:31:17.101Z,96.80
2023-02-22T05:31:47.846Z,96.59
2023-02-22T05:32:18.367Z,96.23
2023-02-22T05:32:49.446Z,95.92
2023-02-22T05:33:19.927Z,95.72
2023-02-22T05:33:50.941Z,95.50
2023-02-22T05:34:21.704Z,95.29
2023-02-22T05:34:52.325Z,95.19
2023-02-22T05:35:22.884Z,94.88
2023-02-22T05:36:24.329Z,94.10
2023-02-22T05:36:55.257Z,93.90
2023-02-22T05:37:26.206Z,93.79
2023-02-22T05:37:57.154Z,93.90
2023-02-22T05:38:28.178Z,93.69
2023-02-22T05:38:58.771Z,93.48
2023-02-22T05:39:29.396Z,93.37
2023-02-22T05:40:01.390Z,93.48
2023-02-22T05:40:31.309Z,93.59
2023-02-22T05:41:03.243Z,93.59
2023-02-22T05:41:33.202Z,93.69
2023-02-22T05:42:04.132Z,93.59
2023-02-22T05:42:35.070Z,93.69
2023-02-22T05:43:06.124Z,93.79
2023-02-22T05:43:36.570Z,93.79
2023-02-22T05:44:07.472Z,93.90
2023-02-22T05:44:38.465Z,94.00
2023-02-22T05:45:09.390Z,93.90
2023-02-22T05:45:40.385Z,93.69
2023-02-22T05:46:10.920Z,93.48
2023-02-22T05:46:41.897Z,93.59
2023-02-22T05:47:12.766Z,93.69
2023-02-22T05:47:43.635Z,93.73
2023-02-22T05:48:14.497Z,93.73
2023-02-22T05:48:45.380Z,93.59
2023-02-22T05:49:16.245Z,93.63
2023-02-22T05:49:47.077Z,93.63
2023-02-22T05:50:17.959Z,93.73
2023-02-22T05:50:48.822Z,93.84
2023-02-22T05:51:19.799Z,93.94
2023-02-22T05:51:50.677Z,94.00
2023-02-22T05:52:21.562Z,94.00
2023-02-22T05:52:52.435Z,93.90
2023-02-22T05:53:23.307Z,93.59
2023-02-22T05:53:54.174Z,93.27
2023-02-22T05:54:25.024Z,92.85
2023-02-22T05:54:55.892Z,92.96
2023-02-22T05:55:26.750Z,93.06
2023-02-22T05:55:57.612Z,93.27
2023-02-22T05:56:28.465Z,93.37
2023-02-22T05:56:59.337Z,93.48
2023-02-22T05:57:30.179Z,93.48
2023-02-22T05:58:01.058Z,93.27
2023-02-22T05:58:31.936Z,93.06
2023-02-22T05:59:02.783Z,92.96
2023-02-22T05:59:33.625Z,92.96
2023-02-22T06:00:04.498Z,92.85
2023-02-22T06:00:35.471Z,92.65
2023-02-22T06:01:06.296Z,92.54
2023-02-22T06:01:37.261Z,92.54
2023-02-22T06:02:08.144Z,92.54
2023-02-22T06:02:39.017Z,92.65
2023-02-22T06:03:09.901Z,92.54
2023-02-22T06:03:40.775Z,92.75
2023-02-22T06:04:11.639Z,92.85
2023-02-22T06:04:42.495Z,92.54
2023-02-22T06:05:13.384Z,92.44
2023-02-22T06:05:44.297Z,92.58
2023-02-22T06:06:15.146Z,92.79
2023-02-22T06:06:46.028Z,93.00
2023-02-22T06:07:16.880Z,93.31
2023-02-22T06:07:47.715Z,93.67
2023-02-22T06:08:18.592Z,93.88
2023-02-22T06:08:49.455Z,94.19
2023-02-22T06:09:20.316Z,94.40
2023-02-22T06:09:51.210Z,94.61
2023-02-22T06:10:22.104Z,94.82
2023-02-22T06:10:52.964Z,95.03
2023-02-22T06:11:23.837Z,95.03
2023-02-22T06:11:55.292Z,95.03
2023-02-22T06:12:25.676Z,95.03
2023-02-22T06:12:56.573Z,95.03
2023-02-22T06:13:27.442Z,95.13
2023-02-22T06:13:58.298Z,95.23
2023-02-22T06:14:29.165Z,95.09
2023-02-22T06:15:00.039Z,94.98
2023-02-22T06:15:30.920Z,94.88
2023-02-22T06:16:01.806Z,94.78
2023-02-22T06:16:32.728Z,94.78
2023-02-22T06:17:03.574Z,94.67
2023-02-22T06:17:34.444Z,94.67
2023-02-22T06:18:05.328Z,94.57
2023-02-22T06:18:36.206Z,94.57
2023-02-22T06:19:07.074Z,94.67
2023-02-22T06:19:37.932Z,94.67
2023-02-22T06:20:08.797Z,94.78
2023-02-22T06:20:39.665Z,94.67
2023-02-22T06:21:10.553Z,94.57
2023-02-22T06:21:41.395Z,94.57
2023-02-22T06:22:12.291Z,94.46
2023-02-22T06:22:43.122Z,94.25
2023-02-22T06:23:14.010Z,93.73
2023-02-22T06:23:44.880Z,93.41
2023-02-22T06:24:15.735Z,93.41
2023-02-22T06:24:46.575Z,93.52
2023-02-22T06:25:17.429Z,93.63
2023-02-22T06:25:48.308Z,93.59
2023-02-22T06:26:19.140Z,93.52
2023-02-22T06:26:50.031Z,93.41
2023-02-22T06:27:20.909Z,93.63
2023-02-22T06:27:51.762Z,93.84
2023-02-22T06:28:22.639Z,93.84
2023-02-22T06:28:53.529Z,93.84
2023-02-22T06:29:24.409Z,94.04
2023-02-22T06:29:55.285Z,94.25
2023-02-22T06:30:26.202Z,94.15
2023-02-22T06:30:57.066Z,94.04
2023-02-22T06:31:27.985Z,94.04
2023-02-22T06:31:58.972Z,94.15
2023-02-22T06:32:29.392Z,94.35
2023-02-22T06:33:00.335Z,94.50
2023-02-22T06:33:31.190Z,94.61
2023-02-22T06:34:02.065Z,94.61
2023-02-22T06:34:32.944Z,94.71
2023-02-22T06:35:03.790Z,94.92
2023-02-22T06:35:34.626Z,95.13
2023-02-22T06:36:05.522Z,95.23
2023-02-22T06:36:36.402Z,95.34
2023-02-22T06:37:07.256Z,95.23
2023-02-22T06:37:38.158Z,95.13
2023-02-22T06:38:09.026Z,95.13
2023-02-22T06:38:39.885Z,95.23
2023-02-22T06:39:10.827Z,95.34
2023-02-22T06:39:41.683Z,95.34
2023-02-22T06:40:12.558Z,95.44
2023-02-22T06:40:43.392Z,95.55
2023-02-22T06:41:14.464Z,95.76
2023-02-22T06:41:44.911Z,95.76
2023-02-22T06:42:15.827Z,95.65
2023-02-22T06:42:46.718Z,95.55
2023-02-22T06:43:17.588Z,95.65
2023-02-22T06:43:48.511Z,95.86